sensor_id;sensor_type;location;lat;lon;timestamp;temperature;humidity
42031;DHT22;27709;52.036;5.906;2023-09-19T00:01:46;17.00;99.90
42031;DHT22;27709;52.036;5.906;2023-09-19T00:04:12;17.00;99.90
42031;DHT22;27709;52.036;5.906;2023-09-19T00:06:38;17.00;99.90
42031;DHT22;27709;52.036;5.906;2023-09-19T00:09:04;16.90;99.90
42031;DHT22;27709;52.036;5.906;2023-09-19T00:11:30;16.90;99.90
42031;DHT22;27709;52.036;5.906;2023-09-19T00:13:56;16.80;99.90
42031;DHT22;27709;52.036;5.906;2023-09-19T00:16:22;16.80;99.90
42031;DHT22;27709;52.036;5.906;2023-09-19T00:18:48;16.80;99.90
42031;DHT22;27709;52.036;5.906;2023-09-19T00:21:14;16.80;99.90
42031;DHT22;27709;52.036;5.906;2023-09-19T00:23:40;16.80;99.90
42031;DHT22;27709;52.036;5.906;2023-09-19T00:26:06;16.80;99.90
42031;DHT22;27709;52.036;5.906;2023-09-19T00:28:32;16.90;99.90
42031;DHT22;27709;52.036;5.906;2023-09-19T00:30:57;16.90;99.90
42031;DHT22;27709;52.036;5.906;2023-09-19T00:33:26;16.90;99.90
42031;DHT22;27709;52.036;5.906;2023-09-19T00:35:53;16.90;99.90
42031;DHT22;27709;52.036;5.906;2023-09-19T00:38:20;16.90;99.90
42031;DHT22;27709;52.036;5.906;2023-09-19T00:40:48;16.90;99.90
42031;DHT22;27709;52.036;5.906;2023-09-19T00:43:30;16.90;99.90
42031;DHT22;27709;52.036;5.906;2023-09-19T00:45:59;16.80;99.90
42031;DHT22;27709;52.036;5.906;2023-09-19T00:48:29;16.80;99.90
42031;DHT22;27709;52.036;5.906;2023-09-19T00:50:55;16.80;99.90
42031;DHT22;27709;52.036;5.906;2023-09-19T00:53:24;16.80;99.90
42031;DHT22;27709;52.036;5.906;2023-09-19T00:55:53;16.80;99.90
42031;DHT22;27709;52.036;5.906;2023-09-19T00:58:19;16.80;99.90
42031;DHT22;27709;52.036;5.906;2023-09-19T01:00:45;16.80;99.90
42031;DHT22;27709;52.036;5.906;2023-09-19T01:03:11;16.90;99.90
42031;DHT22;27709;52.036;5.906;2023-09-19T01:05:39;16.90;99.90
42031;DHT22;27709;52.036;5.906;2023-09-19T01:08:05;16.90;99.90
42031;DHT22;27709;52.036;5.906;2023-09-19T01:10:32;16.90;99.90
42031;DHT22;27709;52.036;5.906;2023-09-19T01:13:15;16.90;99.90
42031;DHT22;27709;52.036;5.906;2023-09-19T01:15:47;16.80;99.90
42031;DHT22;27709;52.036;5.906;2023-09-19T01:18:40;16.80;99.90
42031;DHT22;27709;52.036;5.906;2023-09-19T01:21:28;16.80;99.90
42031;DHT22;27709;52.036;5.906;2023-09-19T01:24:30;16.80;99.90
42031;DHT22;27709;52.036;5.906;2023-09-19T01:27:25;16.70;99.90
42031;DHT22;27709;52.036;5.906;2023-09-19T01:30:13;16.70;99.90
42031;DHT22;27709;52.036;5.906;2023-09-19T01:32:39;16.70;99.90
42031;DHT22;27709;52.036;5.906;2023-09-19T01:35:07;16.70;99.90
42031;DHT22;27709;52.036;5.906;2023-09-19T01:37:37;16.60;99.90
42031;DHT22;27709;52.036;5.906;2023-09-19T01:40:06;16.70;99.90
42031;DHT22;27709;52.036;5.906;2023-09-19T01:45:50;16.70;99.90
42031;DHT22;27709;52.036;5.906;2023-09-19T01:48:38;16.70;99.90
42031;DHT22;27709;52.036;5.906;2023-09-19T01:51:09;16.80;99.90
42031;DHT22;27709;52.036;5.906;2023-09-19T01:53:51;16.80;99.90
42031;DHT22;27709;52.036;5.906;2023-09-19T01:56:29;16.80;99.90
42031;DHT22;27709;52.036;5.906;2023-09-19T01:59:05;16.80;99.90
42031;DHT22;27709;52.036;5.906;2023-09-19T02:01:32;16.70;99.90
42031;DHT22;27709;52.036;5.906;2023-09-19T02:03:59;16.70;99.90
42031;DHT22;27709;52.036;5.906;2023-09-19T02:06:24;16.60;99.90
42031;DHT22;27709;52.036;5.906;2023-09-19T02:08:50;16.70;99.90
42031;DHT22;27709;52.036;5.906;2023-09-19T02:11:16;16.60;99.90
42031;DHT22;27709;52.036;5.906;2023-09-19T02:13:41;16.60;99.90
42031;DHT22;27709;52.036;5.906;2023-09-19T02:16:07;16.60;99.90
42031;DHT22;27709;52.036;5.906;2023-09-19T02:18:36;16.50;99.90
42031;DHT22;27709;52.036;5.906;2023-09-19T02:21:02;16.50;99.90
42031;DHT22;27709;52.036;5.906;2023-09-19T02:23:29;16.50;99.90
42031;DHT22;27709;52.036;5.906;2023-09-19T02:25:56;16.40;99.90
42031;DHT22;27709;52.036;5.906;2023-09-19T02:28:26;16.30;99.90
42031;DHT22;27709;52.036;5.906;2023-09-19T02:30:55;16.30;99.90
42031;DHT22;27709;52.036;5.906;2023-09-19T02:33:21;16.30;99.90
42031;DHT22;27709;52.036;5.906;2023-09-19T02:35:47;16.20;99.90
42031;DHT22;27709;52.036;5.906;2023-09-19T02:38:12;16.20;99.90
42031;DHT22;27709;52.036;5.906;2023-09-19T02:40:39;16.20;99.90
42031;DHT22;27709;52.036;5.906;2023-09-19T02:43:04;16.20;99.90
42031;DHT22;27709;52.036;5.906;2023-09-19T02:45:30;16.20;99.90
42031;DHT22;27709;52.036;5.906;2023-09-19T02:47:57;16.20;99.90
42031;DHT22;27709;52.036;5.906;2023-09-19T02:50:23;16.20;99.90
42031;DHT22;27709;52.036;5.906;2023-09-19T02:52:49;16.10;99.90
42031;DHT22;27709;52.036;5.906;2023-09-19T02:55:16;16.10;99.90
42031;DHT22;27709;52.036;5.906;2023-09-19T02:57:46;16.00;99.90
42031;DHT22;27709;52.036;5.906;2023-09-19T03:00:12;16.00;99.90
42031;DHT22;27709;52.036;5.906;2023-09-19T03:02:39;16.00;99.90
42031;DHT22;27709;52.036;5.906;2023-09-19T03:05:07;16.00;99.90
42031;DHT22;27709;52.036;5.906;2023-09-19T03:07:33;15.90;99.90
42031;DHT22;27709;52.036;5.906;2023-09-19T03:09:59;15.90;99.90
42031;DHT22;27709;52.036;5.906;2023-09-19T03:12:25;15.90;99.90
42031;DHT22;27709;52.036;5.906;2023-09-19T03:14:51;15.90;99.90
42031;DHT22;27709;52.036;5.906;2023-09-19T03:17:17;15.90;99.90
42031;DHT22;27709;52.036;5.906;2023-09-19T03:19:44;15.90;99.90
42031;DHT22;27709;52.036;5.906;2023-09-19T03:22:10;15.80;99.90
42031;DHT22;27709;52.036;5.906;2023-09-19T03:24:36;15.80;99.90
42031;DHT22;27709;52.036;5.906;2023-09-19T03:27:03;15.80;99.90
42031;DHT22;27709;52.036;5.906;2023-09-19T03:29:28;15.80;99.90
42031;DHT22;27709;52.036;5.906;2023-09-19T03:31:54;15.80;99.90
42031;DHT22;27709;52.036;5.906;2023-09-19T03:34:20;15.70;99.90
42031;DHT22;27709;52.036;5.906;2023-09-19T03:36:46;15.70;99.90
42031;DHT22;27709;52.036;5.906;2023-09-19T03:39:11;15.60;99.90
42031;DHT22;27709;52.036;5.906;2023-09-19T03:41:37;15.70;99.90
42031;DHT22;27709;52.036;5.906;2023-09-19T03:44:02;15.60;99.90
42031;DHT22;27709;52.036;5.906;2023-09-19T03:46:28;15.50;99.90
42031;DHT22;27709;52.036;5.906;2023-09-19T03:48:55;15.50;99.90
42031;DHT22;27709;52.036;5.906;2023-09-19T03:51:21;15.60;99.90
42031;DHT22;27709;52.036;5.906;2023-09-19T03:53:47;15.50;99.90
42031;DHT22;27709;52.036;5.906;2023-09-19T03:56:14;15.60;99.90
42031;DHT22;27709;52.036;5.906;2023-09-19T03:58:40;15.60;99.90
42031;DHT22;27709;52.036;5.906;2023-09-19T04:01:06;15.50;99.90
42031;DHT22;27709;52.036;5.906;2023-09-19T04:03:34;15.50;99.90
42031;DHT22;27709;52.036;5.906;2023-09-19T04:06:11;15.50;99.90
42031;DHT22;27709;52.036;5.906;2023-09-19T04:08:37;15.40;99.90
42031;DHT22;27709;52.036;5.906;2023-09-19T04:11:02;15.40;99.90
42031;DHT22;27709;52.036;5.906;2023-09-19T04:13:30;15.40;99.90
42031;DHT22;27709;52.036;5.906;2023-09-19T04:15:55;15.40;99.90
42031;DHT22;27709;52.036;5.906;2023-09-19T04:18:21;15.40;99.90
42031;DHT22;27709;52.036;5.906;2023-09-19T04:20:52;15.40;99.90
42031;DHT22;27709;52.036;5.906;2023-09-19T04:23:18;15.40;99.90
42031;DHT22;27709;52.036;5.906;2023-09-19T04:25:45;15.40;99.90
42031;DHT22;27709;52.036;5.906;2023-09-19T04:28:11;15.40;99.90
42031;DHT22;27709;52.036;5.906;2023-09-19T04:30:37;15.40;99.90
42031;DHT22;27709;52.036;5.906;2023-09-19T04:33:03;15.50;99.90
42031;DHT22;27709;52.036;5.906;2023-09-19T04:35:28;15.50;99.90
42031;DHT22;27709;52.036;5.906;2023-09-19T04:37:57;15.50;99.90
42031;DHT22;27709;52.036;5.906;2023-09-19T04:40:22;15.50;99.90
42031;DHT22;27709;52.036;5.906;2023-09-19T04:42:56;15.50;99.90
42031;DHT22;27709;52.036;5.906;2023-09-19T04:45:25;15.50;99.90
42031;DHT22;27709;52.036;5.906;2023-09-19T04:47:52;15.50;99.90
42031;DHT22;27709;52.036;5.906;2023-09-19T04:50:18;15.50;99.90
42031;DHT22;27709;52.036;5.906;2023-09-19T04:52:44;15.40;99.90
42031;DHT22;27709;52.036;5.906;2023-09-19T04:55:14;15.40;99.90
42031;DHT22;27709;52.036;5.906;2023-09-19T04:57:50;15.40;99.90
42031;DHT22;27709;52.036;5.906;2023-09-19T05:00:21;15.40;99.90
42031;DHT22;27709;52.036;5.906;2023-09-19T05:02:50;15.40;99.90
42031;DHT22;27709;52.036;5.906;2023-09-19T05:05:17;15.40;99.90
42031;DHT22;27709;52.036;5.906;2023-09-19T05:07:44;15.30;99.90
42031;DHT22;27709;52.036;5.906;2023-09-19T05:10:10;15.40;99.90
42031;DHT22;27709;52.036;5.906;2023-09-19T05:12:37;15.30;99.90
42031;DHT22;27709;52.036;5.906;2023-09-19T05:15:06;15.40;99.90
42031;DHT22;27709;52.036;5.906;2023-09-19T05:17:35;15.40;99.90
42031;DHT22;27709;52.036;5.906;2023-09-19T05:20:01;15.40;99.90
42031;DHT22;27709;52.036;5.906;2023-09-19T05:22:41;15.50;99.90
42031;DHT22;27709;52.036;5.906;2023-09-19T05:25:07;15.40;99.90
42031;DHT22;27709;52.036;5.906;2023-09-19T05:27:33;15.40;99.90
42031;DHT22;27709;52.036;5.906;2023-09-19T05:30:01;15.40;99.90
42031;DHT22;27709;52.036;5.906;2023-09-19T05:32:27;15.40;99.90
42031;DHT22;27709;52.036;5.906;2023-09-19T05:34:53;15.50;99.90
42031;DHT22;27709;52.036;5.906;2023-09-19T05:37:19;15.60;99.90
42031;DHT22;27709;52.036;5.906;2023-09-19T05:39:44;15.60;99.90
42031;DHT22;27709;52.036;5.906;2023-09-19T05:42:10;15.60;99.90
42031;DHT22;27709;52.036;5.906;2023-09-19T05:44:36;15.60;99.90
42031;DHT22;27709;52.036;5.906;2023-09-19T05:47:02;15.60;99.90
42031;DHT22;27709;52.036;5.906;2023-09-19T05:49:28;15.60;99.90
42031;DHT22;27709;52.036;5.906;2023-09-19T05:51:53;15.60;99.90
42031;DHT22;27709;52.036;5.906;2023-09-19T05:54:20;15.60;99.90
42031;DHT22;27709;52.036;5.906;2023-09-19T05:56:46;15.60;99.90
42031;DHT22;27709;52.036;5.906;2023-09-19T05:59:12;15.70;99.90
42031;DHT22;27709;52.036;5.906;2023-09-19T06:01:41;15.70;99.90
42031;DHT22;27709;52.036;5.906;2023-09-19T06:04:07;15.80;99.90
42031;DHT22;27709;52.036;5.906;2023-09-19T06:06:33;15.90;99.90
42031;DHT22;27709;52.036;5.906;2023-09-19T06:09:02;15.90;99.90
42031;DHT22;27709;52.036;5.906;2023-09-19T06:11:27;15.90;99.90
42031;DHT22;27709;52.036;5.906;2023-09-19T06:13:54;16.00;99.90
42031;DHT22;27709;52.036;5.906;2023-09-19T06:16:20;16.00;99.90
42031;DHT22;27709;52.036;5.906;2023-09-19T06:18:47;16.00;99.90
42031;DHT22;27709;52.036;5.906;2023-09-19T06:21:12;16.10;99.90
42031;DHT22;27709;52.036;5.906;2023-09-19T06:23:38;16.10;99.90
42031;DHT22;27709;52.036;5.906;2023-09-19T06:26:04;16.20;99.90
42031;DHT22;27709;52.036;5.906;2023-09-19T06:28:32;16.20;99.90
42031;DHT22;27709;52.036;5.906;2023-09-19T06:30:58;16.30;99.90
42031;DHT22;27709;52.036;5.906;2023-09-19T06:33:24;16.30;99.90
42031;DHT22;27709;52.036;5.906;2023-09-19T06:35:50;16.40;99.90
42031;DHT22;27709;52.036;5.906;2023-09-19T06:38:18;16.50;99.90
42031;DHT22;27709;52.036;5.906;2023-09-19T06:40:44;16.70;99.90
42031;DHT22;27709;52.036;5.906;2023-09-19T06:43:10;16.70;99.90
42031;DHT22;27709;52.036;5.906;2023-09-19T06:45:36;16.80;99.90
42031;DHT22;27709;52.036;5.906;2023-09-19T06:48:02;16.90;99.90
42031;DHT22;27709;52.036;5.906;2023-09-19T06:50:28;17.00;99.90
42031;DHT22;27709;52.036;5.906;2023-09-19T06:52:56;17.10;99.90
42031;DHT22;27709;52.036;5.906;2023-09-19T06:55:22;17.20;99.90
42031;DHT22;27709;52.036;5.906;2023-09-19T06:57:53;17.20;99.70
42031;DHT22;27709;52.036;5.906;2023-09-19T07:00:22;17.30;99.60
42031;DHT22;27709;52.036;5.906;2023-09-19T07:03:15;17.30;99.50
42031;DHT22;27709;52.036;5.906;2023-09-19T07:05:43;17.40;99.50
42031;DHT22;27709;52.036;5.906;2023-09-19T07:08:10;17.40;99.60
42031;DHT22;27709;52.036;5.906;2023-09-19T07:10:38;17.50;99.40
42031;DHT22;27709;52.036;5.906;2023-09-19T07:13:07;17.60;99.60
42031;DHT22;27709;52.036;5.906;2023-09-19T07:15:37;17.70;99.30
42031;DHT22;27709;52.036;5.906;2023-09-19T07:18:06;17.70;99.30
42031;DHT22;27709;52.036;5.906;2023-09-19T07:20:32;17.80;99.00
42031;DHT22;27709;52.036;5.906;2023-09-19T07:22:58;17.80;98.90
42031;DHT22;27709;52.036;5.906;2023-09-19T07:25:30;18.00;99.00
42031;DHT22;27709;52.036;5.906;2023-09-19T07:27:56;18.20;98.80
42031;DHT22;27709;52.036;5.906;2023-09-19T07:30:25;18.60;98.30
42031;DHT22;27709;52.036;5.906;2023-09-19T07:32:52;18.90;97.90
42031;DHT22;27709;52.036;5.906;2023-09-19T07:35:20;19.20;97.50
42031;DHT22;27709;52.036;5.906;2023-09-19T07:37:47;19.40;96.90
42031;DHT22;27709;52.036;5.906;2023-09-19T07:40:15;19.70;96.60
42031;DHT22;27709;52.036;5.906;2023-09-19T07:42:41;19.90;96.10
42031;DHT22;27709;52.036;5.906;2023-09-19T07:45:09;20.20;95.70
42031;DHT22;27709;52.036;5.906;2023-09-19T07:47:34;20.20;94.80
42031;DHT22;27709;52.036;5.906;2023-09-19T07:50:01;20.10;95.10
42031;DHT22;27709;52.036;5.906;2023-09-19T07:52:28;20.20;95.20
42031;DHT22;27709;52.036;5.906;2023-09-19T07:54:54;20.60;95.10
42031;DHT22;27709;52.036;5.906;2023-09-19T07:57:20;21.00;94.40
42031;DHT22;27709;52.036;5.906;2023-09-19T07:59:45;21.50;93.80
42031;DHT22;27709;52.036;5.906;2023-09-19T08:02:14;22.00;93.00
42031;DHT22;27709;52.036;5.906;2023-09-19T08:04:45;22.30;92.40
42031;DHT22;27709;52.036;5.906;2023-09-19T08:07:15;22.50;92.40
42031;DHT22;27709;52.036;5.906;2023-09-19T08:09:49;22.70;91.70
42031;DHT22;27709;52.036;5.906;2023-09-19T08:12:14;23.00;91.30
42031;DHT22;27709;52.036;5.906;2023-09-19T08:14:40;23.20;91.20
42031;DHT22;27709;52.036;5.906;2023-09-19T08:17:09;23.50;90.60
42031;DHT22;27709;52.036;5.906;2023-09-19T08:19:34;23.60;89.90
42031;DHT22;27709;52.036;5.906;2023-09-19T08:22:01;23.70;90.20
42031;DHT22;27709;52.036;5.906;2023-09-19T08:24:29;23.70;89.30
42031;DHT22;27709;52.036;5.906;2023-09-19T08:26:56;23.90;88.80
42031;DHT22;27709;52.036;5.906;2023-09-19T08:29:25;24.00;87.90
42031;DHT22;27709;52.036;5.906;2023-09-19T08:31:56;24.00;87.70
42031;DHT22;27709;52.036;5.906;2023-09-19T08:34:24;24.00;88.50
42031;DHT22;27709;52.036;5.906;2023-09-19T08:36:54;23.90;88.40
42031;DHT22;27709;52.036;5.906;2023-09-19T08:39:23;23.90;88.20
42031;DHT22;27709;52.036;5.906;2023-09-19T08:41:58;23.60;88.70
42031;DHT22;27709;52.036;5.906;2023-09-19T08:44:27;23.30;89.00
42031;DHT22;27709;52.036;5.906;2023-09-19T08:47:08;23.40;90.10
42031;DHT22;27709;52.036;5.906;2023-09-19T08:49:53;23.60;89.90
42031;DHT22;27709;52.036;5.906;2023-09-19T08:52:27;23.80;90.10
42031;DHT22;27709;52.036;5.906;2023-09-19T08:54:58;23.90;89.20
42031;DHT22;27709;52.036;5.906;2023-09-19T08:57:29;24.10;88.70
42031;DHT22;27709;52.036;5.906;2023-09-19T08:59:55;24.20;87.30
42031;DHT22;27709;52.036;5.906;2023-09-19T09:02:22;24.20;88.70
42031;DHT22;27709;52.036;5.906;2023-09-19T09:04:49;24.20;87.70
42031;DHT22;27709;52.036;5.906;2023-09-19T09:07:16;24.20;87.50
42031;DHT22;27709;52.036;5.906;2023-09-19T09:09:44;24.10;88.00
42031;DHT22;27709;52.036;5.906;2023-09-19T09:12:14;23.90;87.50
42031;DHT22;27709;52.036;5.906;2023-09-19T09:14:46;23.70;88.30
42031;DHT22;27709;52.036;5.906;2023-09-19T09:17:18;23.60;88.20
42031;DHT22;27709;52.036;5.906;2023-09-19T09:19:46;23.60;89.40
42031;DHT22;27709;52.036;5.906;2023-09-19T09:22:12;24.20;88.90
42031;DHT22;27709;52.036;5.906;2023-09-19T09:24:51;25.00;85.20
42031;DHT22;27709;52.036;5.906;2023-09-19T09:27:20;25.40;84.50
42031;DHT22;27709;52.036;5.906;2023-09-19T09:29:47;25.50;82.20
42031;DHT22;27709;52.036;5.906;2023-09-19T09:32:19;25.50;83.00
42031;DHT22;27709;52.036;5.906;2023-09-19T09:34:46;25.30;82.00
42031;DHT22;27709;52.036;5.906;2023-09-19T09:37:16;24.70;83.60
42031;DHT22;27709;52.036;5.906;2023-09-19T09:40:05;24.10;83.10
42031;DHT22;27709;52.036;5.906;2023-09-19T09:42:40;23.50;84.90
42031;DHT22;27709;52.036;5.906;2023-09-19T09:45:16;23.40;86.00
42031;DHT22;27709;52.036;5.906;2023-09-19T09:47:47;23.70;85.30
42031;DHT22;27709;52.036;5.906;2023-09-19T09:50:31;24.00;84.00
42031;DHT22;27709;52.036;5.906;2023-09-19T09:53:28;24.30;83.40
42031;DHT22;27709;52.036;5.906;2023-09-19T09:58:37;24.10;83.70
42031;DHT22;27709;52.036;5.906;2023-09-19T10:01:06;24.00;84.00
42031;DHT22;27709;52.036;5.906;2023-09-19T10:03:36;23.90;83.40
42031;DHT22;27709;52.036;5.906;2023-09-19T10:06:10;23.80;83.90
42031;DHT22;27709;52.036;5.906;2023-09-19T10:11:42;23.80;84.40
42031;DHT22;27709;52.036;5.906;2023-09-19T10:14:10;23.70;84.90
42031;DHT22;27709;52.036;5.906;2023-09-19T10:16:41;24.00;85.30
42031;DHT22;27709;52.036;5.906;2023-09-19T10:19:10;24.40;84.80
42031;DHT22;27709;52.036;5.906;2023-09-19T10:21:36;24.70;83.40
42031;DHT22;27709;52.036;5.906;2023-09-19T10:24:05;24.60;84.40
42031;DHT22;27709;52.036;5.906;2023-09-19T10:26:36;24.60;85.00
42031;DHT22;27709;52.036;5.906;2023-09-19T10:29:03;24.60;83.10
42031;DHT22;27709;52.036;5.906;2023-09-19T10:31:32;24.50;83.20
42031;DHT22;27709;52.036;5.906;2023-09-19T10:34:03;24.10;83.60
42031;DHT22;27709;52.036;5.906;2023-09-19T10:36:32;23.90;84.40
42031;DHT22;27709;52.036;5.906;2023-09-19T10:39:01;23.70;86.00
42031;DHT22;27709;52.036;5.906;2023-09-19T10:41:31;23.60;86.10
42031;DHT22;27709;52.036;5.906;2023-09-19T10:44:03;23.40;86.10
42031;DHT22;27709;52.036;5.906;2023-09-19T10:46:34;23.30;85.90
42031;DHT22;27709;52.036;5.906;2023-09-19T10:49:01;23.10;87.10
42031;DHT22;27709;52.036;5.906;2023-09-19T10:51:31;22.90;86.60
42031;DHT22;27709;52.036;5.906;2023-09-19T10:54:11;22.60;87.90
42031;DHT22;27709;52.036;5.906;2023-09-19T10:56:42;22.40;87.70
42031;DHT22;27709;52.036;5.906;2023-09-19T10:59:11;22.40;89.60
42031;DHT22;27709;52.036;5.906;2023-09-19T11:01:43;22.40;89.40
42031;DHT22;27709;52.036;5.906;2023-09-19T11:04:28;22.40;89.40
42031;DHT22;27709;52.036;5.906;2023-09-19T11:07:11;22.30;89.30
42031;DHT22;27709;52.036;5.906;2023-09-19T11:09:51;22.10;90.00
42031;DHT22;27709;52.036;5.906;2023-09-19T11:14:59;22.00;90.30
42031;DHT22;27709;52.036;5.906;2023-09-19T11:17:33;22.00;90.00
42031;DHT22;27709;52.036;5.906;2023-09-19T11:30:48;21.90;90.90
42031;DHT22;27709;52.036;5.906;2023-09-19T11:33:24;22.00;90.00
42031;DHT22;27709;52.036;5.906;2023-09-19T11:36:16;21.90;90.30
42031;DHT22;27709;52.036;5.906;2023-09-19T11:46:12;21.30;91.00
42031;DHT22;27709;52.036;5.906;2023-09-19T11:48:43;21.30;91.50
42031;DHT22;27709;52.036;5.906;2023-09-19T11:51:14;21.50;91.40
42031;DHT22;27709;52.036;5.906;2023-09-19T11:53:49;21.60;90.50
42031;DHT22;27709;52.036;5.906;2023-09-19T11:56:17;21.80;90.90
42031;DHT22;27709;52.036;5.906;2023-09-19T11:58:44;22.00;90.80
42031;DHT22;27709;52.036;5.906;2023-09-19T12:01:13;22.10;88.80
42031;DHT22;27709;52.036;5.906;2023-09-19T12:03:47;22.00;90.20
42031;DHT22;27709;52.036;5.906;2023-09-19T12:06:15;22.00;90.70
42031;DHT22;27709;52.036;5.906;2023-09-19T12:08:42;22.00;89.80
42031;DHT22;27709;52.036;5.906;2023-09-19T12:11:13;21.90;90.30
42031;DHT22;27709;52.036;5.906;2023-09-19T12:13:47;21.90;90.00
42031;DHT22;27709;52.036;5.906;2023-09-19T12:16:18;22.00;90.70
42031;DHT22;27709;52.036;5.906;2023-09-19T12:18:47;22.10;90.30
42031;DHT22;27709;52.036;5.906;2023-09-19T12:21:26;22.10;90.30
42031;DHT22;27709;52.036;5.906;2023-09-19T12:24:13;22.10;89.50
42031;DHT22;27709;52.036;5.906;2023-09-19T12:26:45;22.10;89.20
42031;DHT22;27709;52.036;5.906;2023-09-19T12:29:15;22.10;89.80
42031;DHT22;27709;52.036;5.906;2023-09-19T12:31:52;22.20;88.60
42031;DHT22;27709;52.036;5.906;2023-09-19T12:34:22;22.20;87.70
42031;DHT22;27709;52.036;5.906;2023-09-19T12:36:48;22.30;89.20
42031;DHT22;27709;52.036;5.906;2023-09-19T12:39:24;22.10;89.50
42031;DHT22;27709;52.036;5.906;2023-09-19T12:41:51;21.90;89.50
42031;DHT22;27709;52.036;5.906;2023-09-19T12:44:18;21.90;90.00
42031;DHT22;27709;52.036;5.906;2023-09-19T12:46:44;21.70;90.00
42031;DHT22;27709;52.036;5.906;2023-09-19T12:49:18;21.60;88.70
42031;DHT22;27709;52.036;5.906;2023-09-19T12:51:45;21.40;89.60
42031;DHT22;27709;52.036;5.906;2023-09-19T12:54:10;21.20;90.20
42031;DHT22;27709;52.036;5.906;2023-09-19T12:56:40;21.10;90.70
42031;DHT22;27709;52.036;5.906;2023-09-19T12:59:12;21.10;90.90
42031;DHT22;27709;52.036;5.906;2023-09-19T13:01:39;21.10;90.70
42031;DHT22;27709;52.036;5.906;2023-09-19T13:04:20;21.00;90.90
42031;DHT22;27709;52.036;5.906;2023-09-19T13:06:52;21.10;90.80
42031;DHT22;27709;52.036;5.906;2023-09-19T13:09:20;21.00;91.20
42031;DHT22;27709;52.036;5.906;2023-09-19T13:11:46;21.00;91.20
42031;DHT22;27709;52.036;5.906;2023-09-19T13:14:26;20.90;90.80
42031;DHT22;27709;52.036;5.906;2023-09-19T13:17:06;20.90;91.10
42031;DHT22;27709;52.036;5.906;2023-09-19T13:19:45;20.90;91.30
42031;DHT22;27709;52.036;5.906;2023-09-19T13:22:44;20.90;91.30
42031;DHT22;27709;52.036;5.906;2023-09-19T13:25:16;21.00;90.80
42031;DHT22;27709;52.036;5.906;2023-09-19T13:27:44;20.90;91.10
42031;DHT22;27709;52.036;5.906;2023-09-19T13:30:10;20.90;91.80
42031;DHT22;27709;52.036;5.906;2023-09-19T13:32:36;20.90;91.40
42031;DHT22;27709;52.036;5.906;2023-09-19T13:35:02;20.80;91.70
42031;DHT22;27709;52.036;5.906;2023-09-19T13:37:30;20.80;91.70
42031;DHT22;27709;52.036;5.906;2023-09-19T13:39:56;20.80;91.70
42031;DHT22;27709;52.036;5.906;2023-09-19T13:42:24;20.70;91.60
42031;DHT22;27709;52.036;5.906;2023-09-19T13:44:50;20.70;92.00
42031;DHT22;27709;52.036;5.906;2023-09-19T13:47:16;20.70;91.70
42031;DHT22;27709;52.036;5.906;2023-09-19T13:49:42;20.70;91.70
42031;DHT22;27709;52.036;5.906;2023-09-19T13:52:09;20.70;91.70
42031;DHT22;27709;52.036;5.906;2023-09-19T13:54:34;20.60;91.70
42031;DHT22;27709;52.036;5.906;2023-09-19T13:57:00;20.60;91.80
42031;DHT22;27709;52.036;5.906;2023-09-19T13:59:26;20.60;91.70
42031;DHT22;27709;52.036;5.906;2023-09-19T14:01:54;20.50;91.80
42031;DHT22;27709;52.036;5.906;2023-09-19T14:04:21;20.60;92.10
42031;DHT22;27709;52.036;5.906;2023-09-19T14:06:47;20.80;91.90
42031;DHT22;27709;52.036;5.906;2023-09-19T14:09:14;21.00;92.00
42031;DHT22;27709;52.036;5.906;2023-09-19T14:11:44;21.20;92.10
42031;DHT22;27709;52.036;5.906;2023-09-19T14:14:12;21.40;91.70
42031;DHT22;27709;52.036;5.906;2023-09-19T14:16:38;21.60;91.00
42031;DHT22;27709;52.036;5.906;2023-09-19T14:19:05;21.60;91.00
42031;DHT22;27709;52.036;5.906;2023-09-19T14:21:30;21.60;90.60
42031;DHT22;27709;52.036;5.906;2023-09-19T14:23:56;21.50;90.70
42031;DHT22;27709;52.036;5.906;2023-09-19T14:26:23;21.50;91.10
42031;DHT22;27709;52.036;5.906;2023-09-19T14:28:49;21.50;91.20
42031;DHT22;27709;52.036;5.906;2023-09-19T14:31:14;21.50;91.10
42031;DHT22;27709;52.036;5.906;2023-09-19T14:33:40;21.50;91.10
42031;DHT22;27709;52.036;5.906;2023-09-19T14:36:09;21.30;91.50
42031;DHT22;27709;52.036;5.906;2023-09-19T14:38:37;21.30;90.80
42031;DHT22;27709;52.036;5.906;2023-09-19T14:41:04;21.20;91.30
42031;DHT22;27709;52.036;5.906;2023-09-19T14:43:30;21.10;91.00
42031;DHT22;27709;52.036;5.906;2023-09-19T14:46:02;21.10;91.20
42031;DHT22;27709;52.036;5.906;2023-09-19T14:48:27;21.00;91.30
42031;DHT22;27709;52.036;5.906;2023-09-19T14:50:53;20.90;91.70
42031;DHT22;27709;52.036;5.906;2023-09-19T14:53:20;21.00;91.90
42031;DHT22;27709;52.036;5.906;2023-09-19T14:55:46;21.10;92.20
42031;DHT22;27709;52.036;5.906;2023-09-19T14:58:13;21.10;91.60
42031;DHT22;27709;52.036;5.906;2023-09-19T15:00:39;21.10;91.80
42031;DHT22;27709;52.036;5.906;2023-09-19T15:03:04;21.10;92.10
42031;DHT22;27709;52.036;5.906;2023-09-19T15:05:31;21.10;91.90
42031;DHT22;27709;52.036;5.906;2023-09-19T15:07:56;21.00;91.60
42031;DHT22;27709;52.036;5.906;2023-09-19T15:10:23;20.90;91.50
42031;DHT22;27709;52.036;5.906;2023-09-19T15:12:50;20.70;91.50
42031;DHT22;27709;52.036;5.906;2023-09-19T15:15:16;20.70;92.20
42031;DHT22;27709;52.036;5.906;2023-09-19T15:17:42;20.60;92.30
42031;DHT22;27709;52.036;5.906;2023-09-19T15:20:07;20.60;92.30
42031;DHT22;27709;52.036;5.906;2023-09-19T15:22:34;20.50;92.30
42031;DHT22;27709;52.036;5.906;2023-09-19T15:25:00;20.50;92.60
42031;DHT22;27709;52.036;5.906;2023-09-19T15:27:27;20.50;92.50
42031;DHT22;27709;52.036;5.906;2023-09-19T15:29:53;20.50;92.70
42031;DHT22;27709;52.036;5.906;2023-09-19T15:32:18;20.50;92.50
42031;DHT22;27709;52.036;5.906;2023-09-19T15:34:44;20.40;92.60
42031;DHT22;27709;52.036;5.906;2023-09-19T15:37:09;20.40;92.80
42031;DHT22;27709;52.036;5.906;2023-09-19T15:39:37;20.40;93.00
42031;DHT22;27709;52.036;5.906;2023-09-19T15:42:03;20.30;93.10
42031;DHT22;27709;52.036;5.906;2023-09-19T15:44:28;20.40;93.00
42031;DHT22;27709;52.036;5.906;2023-09-19T15:46:54;20.40;93.00
42031;DHT22;27709;52.036;5.906;2023-09-19T15:49:19;20.40;93.20
42031;DHT22;27709;52.036;5.906;2023-09-19T15:51:45;20.40;93.00
42031;DHT22;27709;52.036;5.906;2023-09-19T15:54:13;20.30;93.00
42031;DHT22;27709;52.036;5.906;2023-09-19T15:56:42;20.30;93.30
42031;DHT22;27709;52.036;5.906;2023-09-19T15:59:08;20.30;93.20
42031;DHT22;27709;52.036;5.906;2023-09-19T16:01:35;20.20;93.50
42031;DHT22;27709;52.036;5.906;2023-09-19T16:04:00;20.30;93.50
42031;DHT22;27709;52.036;5.906;2023-09-19T16:06:30;20.30;93.60
42031;DHT22;27709;52.036;5.906;2023-09-19T16:08:58;20.30;93.40
42031;DHT22;27709;52.036;5.906;2023-09-19T16:11:26;20.20;93.80